Portada
METAR-TAF:

METAR-TAF

Aeroports :

Berlin, Nova Hampshire, Estats Units d'Amèrica

latitud: 44-34-34N, longitud: 071-10-43W, altitud: 353 m

Observació

L'informe es va fer fa 50 minuts, a les 06:52 UTC
Vent calma
Temperatura 1°C
Humitat 86%
Pressió 1022 hPa
Visibilitat: 16.1 km
Cel cobert a una alçada de 5000 ft
pluja

METAR: KBML 260652Z AUTO 00000KT 10SM -RA OVC050 01/M01 A3017 RMK AO2 RAB52 SLP229 P0000 T00061006

Hora: 02:42 (07:42 UTC)


TAF: manca

Observacions i pronòstics meteorològics de més de 4000 aeroports (METAR i TAF).

Les estacions disponibles són els punts grocs i vermells al mapa.

Posi el ratolí al punt desitjat per veure el nom de l'estació.

Feu clic per veure les observacions i els pronòstics meteorològics.

Per canviar el mapa: feu clic els botons verds amb una creu de color negre per apropar; al botó verd amb un guió per allunyar la imatge; o en les fletxes verdes per a mapes adjacents.


METAR-TAF: